createdAt,value
2023-05-21T00:00:35.778Z,100292.69
2023-05-21T00:03:05.769Z,100286.50
2023-05-21T00:05:34.736Z,100285.63
2023-05-21T00:08:03.549Z,100277.72
2023-05-21T00:10:32.105Z,100286.47
2023-05-21T00:13:00.747Z,100287.31
2023-05-21T00:15:29.351Z,100278.50
2023-05-21T00:17:58.113Z,100268.81
2023-05-21T00:20:29.312Z,100270.53
2023-05-21T00:22:58.101Z,100265.25
2023-05-21T00:25:26.568Z,100267.88
2023-05-21T00:27:55.981Z,100259.94
2023-05-21T00:30:24.845Z,100259.91
2023-05-21T00:32:53.451Z,100274.81
2023-05-21T00:35:22.448Z,100263.34
2023-05-21T00:37:53.960Z,100258.06
2023-05-21T00:40:22.775Z,100265.03
2023-05-21T00:42:51.448Z,100265.00
2023-05-21T00:45:20.483Z,100258.88
2023-05-21T00:47:49.201Z,100264.97
2023-05-21T00:50:17.966Z,100260.56
2023-05-21T00:52:46.752Z,100254.38
2023-05-21T00:55:16.886Z,100257.00
2023-05-21T00:57:47.020Z,100257.88
2023-05-21T01:00:16.507Z,100257.81
2023-05-21T01:02:45.293Z,100261.28
2023-05-21T01:05:15.562Z,100255.09
2023-05-21T01:07:44.395Z,100258.56
2023-05-21T01:10:13.646Z,100254.19
2023-05-21T01:12:45.556Z,100256.78
2023-05-21T01:15:14.476Z,100247.09
2023-05-21T01:17:46.230Z,100248.84
2023-05-21T01:20:18.142Z,100245.31
2023-05-21T01:22:54.025Z,100244.38
2023-05-21T01:25:23.362Z,100242.63
2023-05-21T01:27:52.430Z,100242.59
2023-05-21T01:30:22.682Z,100245.22
2023-05-21T01:33:00.114Z,100243.44
2023-05-21T01:35:36.356Z,100239.03
2023-05-21T01:38:15.259Z,100231.13
2023-05-21T01:40:50.700Z,100232.84
2023-05-21T01:43:20.740Z,100231.06
2023-05-21T01:45:54.700Z,100224.91
2023-05-21T01:48:24.423Z,100224.91
2023-05-21T01:50:55.306Z,100223.13
2023-05-21T01:53:25.663Z,100225.72
2023-05-21T01:55:54.600Z,100227.44
2023-05-21T01:58:24.318Z,100225.69
2023-05-21T02:00:53.206Z,100227.41
2023-05-21T02:03:23.141Z,100225.63
2023-05-21T02:05:52.389Z,100226.44
2023-05-21T02:08:23.527Z,100215.03
2023-05-21T02:10:53.631Z,100217.69
2023-05-21T02:13:25.838Z,100220.28
2023-05-21T02:15:56.142Z,100221.16
2023-05-21T02:18:26.474Z,100221.13
2023-05-21T02:20:55.054Z,100215.81
2023-05-21T02:23:23.609Z,100209.66
2023-05-21T02:25:53.563Z,100215.78
2023-05-21T02:28:22.300Z,100221.91
2023-05-21T02:30:51.328Z,100220.13
2023-05-21T02:33:20.229Z,100212.22
2023-05-21T02:35:48.889Z,100219.25
2023-05-21T02:38:19.515Z,100218.34
2023-05-21T02:40:48.382Z,100219.19
2023-05-21T02:43:18.313Z,100210.38
2023-05-21T02:45:47.707Z,100211.25
2023-05-21T02:48:19.593Z,100207.69
2023-05-21T02:50:49.303Z,100208.56
2023-05-21T02:53:17.936Z,100210.28
2023-05-21T02:55:46.591Z,100209.38
2023-05-21T02:58:15.418Z,100198.84
2023-05-21T03:00:45.522Z,100204.06
2023-05-21T03:03:14.553Z,100201.41
2023-05-21T03:05:43.606Z,100196.97
2023-05-21T03:08:12.221Z,100197.88
2023-05-21T03:10:41.630Z,100198.72
2023-05-21T03:13:10.664Z,100191.69
2023-05-21T03:15:39.824Z,100195.19
2023-05-21T03:18:09.885Z,100186.38
2023-05-21T03:20:43.694Z,100193.34
2023-05-21T03:23:15.567Z,100192.47
2023-05-21T03:25:46.087Z,100195.94
2023-05-21T03:28:15.453Z,100197.69
2023-05-21T03:30:49.708Z,100187.19
2023-05-21T03:33:46.161Z,100188.00
2023-05-21T03:36:26.700Z,100184.50
2023-05-21T03:38:55.467Z,100192.34
2023-05-21T03:41:24.340Z,100195.88
2023-05-21T03:43:57.905Z,100189.69
2023-05-21T03:46:30.959Z,100200.22
2023-05-21T03:49:08.616Z,100199.34
2023-05-21T03:51:39.635Z,100189.69
2023-05-21T03:54:10.628Z,100195.78
2023-05-21T03:56:39.796Z,100187.91
2023-05-21T03:59:08.331Z,100194.88
2023-05-21T04:01:39.161Z,100187.84
2023-05-21T04:04:11.343Z,100188.72
2023-05-21T04:06:42.349Z,100185.22
2023-05-21T04:09:12.025Z,100193.13
2023-05-21T04:11:40.780Z,100196.63
2023-05-21T04:14:09.517Z,100189.59
2023-05-21T04:16:38.891Z,100193.16
2023-05-21T04:19:07.981Z,100198.38
2023-05-21T04:21:37.975Z,100186.97
2023-05-21T04:24:07.781Z,100198.38
2023-05-21T04:27:02.195Z,100200.13
2023-05-21T04:29:32.929Z,100200.13
2023-05-21T04:32:03.261Z,100196.66
2023-05-21T04:34:34.036Z,100198.41
2023-05-21T04:37:04.966Z,100194.91
2023-05-21T04:39:34.778Z,100195.78
2023-05-21T04:42:03.451Z,100189.66
2023-05-21T04:44:32.338Z,100201.09
2023-05-21T04:47:02.200Z,100199.34
2023-05-21T04:49:31.129Z,100193.19
2023-05-21T04:51:59.720Z,100199.38
2023-05-21T04:54:30.166Z,100196.75
2023-05-21T04:56:58.739Z,100188.00
2023-05-21T04:59:27.374Z,100194.16
2023-05-21T05:01:56.091Z,100205.53
2023-05-21T05:04:25.190Z,100199.41
2023-05-21T05:06:53.840Z,100188.94
2023-05-21T05:09:25.182Z,100202.13
2023-05-21T05:11:55.928Z,100189.84
2023-05-21T05:14:24.613Z,100201.28
2023-05-21T05:16:54.523Z,100196.91
2023-05-21T05:19:23.397Z,100189.91
2023-05-21T05:21:52.034Z,100198.72
2023-05-21T05:24:21.762Z,100189.97
2023-05-21T05:26:50.443Z,100197.91
2023-05-21T05:29:20.517Z,100194.44
2023-05-21T05:31:49.779Z,100196.22
2023-05-21T05:34:18.437Z,100191.00
2023-05-21T05:36:47.060Z,100188.38
2023-05-21T05:39:16.037Z,100196.31
2023-05-21T05:41:44.821Z,100191.94
2023-05-21T05:44:13.378Z,100188.47
2023-05-21T05:46:44.017Z,100188.47
2023-05-21T05:49:14.945Z,100194.66
2023-05-21T05:51:43.754Z,100191.19
2023-05-21T05:54:12.429Z,100189.41
2023-05-21T05:56:40.962Z,100188.56
2023-05-21T05:59:09.648Z,100192.13
2023-05-21T06:01:42.480Z,100196.50
2023-05-21T06:04:12.467Z,100189.53
2023-05-21T06:06:42.115Z,100186.94
2023-05-21T06:09:11.245Z,100184.28
2023-05-21T06:11:40.021Z,100191.34
2023-05-21T06:14:08.637Z,100187.00
2023-05-21T06:16:37.376Z,100192.31
2023-05-21T06:19:06.313Z,100187.06
2023-05-21T06:21:36.328Z,100195.00
2023-05-21T06:24:07.732Z,100194.16
2023-05-21T06:26:36.401Z,100187.16
2023-05-21T06:29:05.673Z,100186.31
2023-05-21T06:31:34.570Z,100180.22
2023-05-21T06:34:04.127Z,100178.50
2023-05-21T06:36:33.025Z,100173.25
2023-05-21T06:39:03.466Z,100175.91
2023-05-21T06:41:33.112Z,100175.97
2023-05-21T06:44:06.096Z,100175.13
2023-05-21T06:46:43.332Z,100171.66
2023-05-21T06:49:14.496Z,100172.56
2023-05-21T06:51:44.353Z,100163.78
2023-05-21T06:54:16.071Z,100168.22
2023-05-21T06:56:44.816Z,100173.56
2023-05-21T06:59:13.480Z,100164.81
2023-05-21T07:01:44.019Z,100173.66
2023-05-21T07:04:12.833Z,100170.19
2023-05-21T07:06:43.261Z,100176.41
2023-05-21T07:09:12.617Z,100175.56
2023-05-21T07:11:42.638Z,100178.25
2023-05-21T07:14:12.118Z,100178.28
2023-05-21T07:16:40.830Z,100179.25
2023-05-21T07:19:10.287Z,100172.28
2023-05-21T07:21:40.573Z,100179.31
2023-05-21T07:24:10.024Z,100172.34
2023-05-21T07:26:43.266Z,100181.19
2023-05-21T07:29:13.406Z,100185.59
2023-05-21T07:31:42.742Z,100184.75
2023-05-21T07:34:12.355Z,100179.53
2023-05-21T07:36:43.154Z,100187.44
2023-05-21T07:39:11.926Z,100184.84
2023-05-21T07:41:42.380Z,100174.31
2023-05-21T07:44:11.917Z,100184.94
2023-05-21T07:46:43.973Z,100177.06
2023-05-21T07:49:17.036Z,100186.78
2023-05-21T07:51:47.507Z,100188.59
2023-05-21T07:54:17.209Z,100184.22
2023-05-21T07:56:48.495Z,100185.16
2023-05-21T07:59:34.179Z,100187.00
2023-05-21T08:02:03.199Z,100187.09
2023-05-21T08:04:32.197Z,100187.13
2023-05-21T08:07:01.197Z,100186.28
2023-05-21T08:09:30.085Z,100180.16
2023-05-21T08:12:00.661Z,100185.47
2023-05-21T08:14:29.993Z,100183.78
2023-05-21T08:16:59.222Z,100196.16
2023-05-21T08:19:27.951Z,100184.75
2023-05-21T08:21:56.877Z,100192.69
2023-05-21T08:24:27.114Z,100200.69
2023-05-21T08:26:55.804Z,100200.72
2023-05-21T08:29:25.853Z,100198.09
2023-05-21T08:31:55.877Z,100194.59
2023-05-21T08:34:24.970Z,100195.53
2023-05-21T08:37:04.246Z,100197.31
2023-05-21T08:39:53.640Z,100202.59
2023-05-21T08:42:37.331Z,100198.22
2023-05-21T08:45:09.885Z,100201.75
2023-05-21T08:47:38.781Z,100193.84
2023-05-21T08:50:12.066Z,100197.38
2023-05-21T08:52:41.259Z,100191.22
2023-05-21T08:55:10.836Z,100189.44
2023-05-21T08:57:45.067Z,100189.47
2023-05-21T09:00:20.736Z,100187.69
2023-05-21T09:02:54.531Z,100176.22
2023-05-21T09:05:25.586Z,100186.78
2023-05-21T09:08:02.338Z,100175.34
2023-05-21T09:10:54.578Z,100181.50
2023-05-21T09:13:29.814Z,100173.56
2023-05-21T09:16:00.517Z,100174.44
2023-05-21T09:18:29.634Z,100161.16
2023-05-21T09:21:24.853Z,100162.91
2023-05-21T09:23:58.278Z,100166.41
2023-05-21T09:26:27.931Z,100159.31
2023-05-21T09:29:02.272Z,100161.09
2023-05-21T09:31:33.166Z,100149.59
2023-05-21T09:34:02.962Z,100149.56
2023-05-21T09:36:35.498Z,100141.56
2023-05-21T09:39:05.011Z,100147.72
2023-05-21T09:41:39.132Z,100141.50
2023-05-21T09:44:08.879Z,100150.28
2023-05-21T09:46:43.510Z,100145.88
2023-05-21T09:49:24.720Z,100142.25
2023-05-21T09:51:57.143Z,100142.22
2023-05-21T09:54:26.181Z,100143.03
2023-05-21T09:56:55.089Z,100141.19
2023-05-21T09:59:24.115Z,100134.06
2023-05-21T10:01:55.495Z,100137.56
2023-05-21T10:04:24.729Z,100135.75
2023-05-21T10:06:54.012Z,100141.94
2023-05-21T10:09:22.947Z,100138.38
2023-05-21T10:11:55.583Z,100135.72
2023-05-21T10:14:29.104Z,100130.41
2023-05-21T10:17:00.012Z,100127.72
2023-05-21T10:19:31.928Z,100133.91
2023-05-21T10:22:01.986Z,100134.75
2023-05-21T10:24:31.168Z,100135.59
2023-05-21T10:27:00.192Z,100126.72
2023-05-21T10:29:29.987Z,100128.44
2023-05-21T10:32:02.058Z,100123.97
2023-05-21T10:34:32.228Z,100137.22
2023-05-21T10:37:03.503Z,100122.97
2023-05-21T10:39:33.520Z,100109.66
2023-05-21T10:42:11.152Z,100113.13
2023-05-21T10:44:53.768Z,100112.22
2023-05-21T10:47:41.654Z,100101.50
2023-05-21T10:50:28.046Z,100109.38
2023-05-21T10:53:09.913Z,100108.38
2023-05-21T10:55:50.521Z,100098.50
2023-05-21T10:58:49.698Z,100095.69
2023-05-21T11:01:20.010Z,100095.53
2023-05-21T11:03:51.571Z,100097.13
2023-05-21T11:06:26.064Z,100088.00
2023-05-21T11:08:55.701Z,100094.00
2023-05-21T11:11:46.200Z,100093.81
2023-05-21T11:14:28.842Z,100088.34
2023-05-21T11:16:58.126Z,100089.09
2023-05-21T11:19:36.765Z,100088.84
2023-05-21T11:22:21.935Z,100082.44
2023-05-21T11:24:51.521Z,100093.78
2023-05-21T11:27:37.580Z,100092.66
2023-05-21T11:30:10.366Z,100088.91
2023-05-21T11:32:40.519Z,100083.41
2023-05-21T11:35:15.194Z,100094.84
2023-05-21T11:37:46.117Z,100086.75
2023-05-21T11:40:19.663Z,100083.94
2023-05-21T11:42:53.125Z,100082.19
2023-05-21T11:45:23.073Z,100088.34
2023-05-21T11:47:53.671Z,100098.06
2023-05-21T11:50:23.837Z,100090.91
2023-05-21T11:52:53.542Z,100084.63
2023-05-21T11:55:26.221Z,100086.38
2023-05-21T11:57:56.475Z,100086.22
2023-05-21T12:00:25.408Z,100085.19
2023-05-21T12:02:56.130Z,100087.66
2023-05-21T12:05:27.599Z,100083.97
2023-05-21T12:07:56.431Z,100074.06
2023-05-21T12:10:25.190Z,100076.63
2023-05-21T12:12:56.412Z,100080.94
2023-05-21T12:15:27.718Z,100080.84
2023-05-21T12:17:57.905Z,100073.56
2023-05-21T12:20:30.886Z,100076.06
2023-05-21T12:23:01.986Z,100060.91
2023-05-21T12:25:32.105Z,100066.25
2023-05-21T12:28:03.544Z,100059.38
2023-05-21T12:30:32.766Z,100060.22
2023-05-21T12:33:03.251Z,100055.75
2023-05-21T12:35:33.324Z,100069.00
2023-05-21T12:38:04.027Z,100067.03
2023-05-21T12:40:38.390Z,100058.63
2023-05-21T12:43:07.852Z,100072.44
2023-05-21T12:45:39.236Z,100063.19
2023-05-21T12:48:08.390Z,100064.66
2023-05-21T12:50:42.261Z,100053.59
2023-05-21T12:53:12.387Z,100039.91
2023-05-21T12:55:41.708Z,100044.88
2023-05-21T12:58:15.511Z,100037.25
2023-05-21T13:00:45.667Z,100043.00
2023-05-21T13:03:14.488Z,100038.94
2023-05-21T13:05:45.668Z,100048.56
2023-05-21T13:08:16.882Z,100045.69
2023-05-21T13:10:46.004Z,100052.41
2023-05-21T13:13:14.827Z,100053.94
2023-05-21T13:15:43.504Z,100046.63
2023-05-21T13:18:12.956Z,100046.41
2023-05-21T13:20:41.918Z,100038.00
2023-05-21T13:23:12.088Z,100045.69
2023-05-21T13:25:40.865Z,100030.22
2023-05-21T13:28:10.526Z,100036.16
2023-05-21T13:30:39.377Z,100035.97
2023-05-21T13:33:08.326Z,100025.13
2023-05-21T13:35:37.625Z,100027.69
2023-05-21T13:38:06.121Z,100022.88
2023-05-21T13:40:38.842Z,100022.50
2023-05-21T13:43:07.750Z,100030.22
2023-05-21T13:45:36.386Z,100029.19
2023-05-21T13:48:05.523Z,100023.13
2023-05-21T13:50:34.312Z,100027.84
2023-05-21T13:53:03.003Z,100025.38
2023-05-21T13:55:31.766Z,100020.75
2023-05-21T13:58:01.697Z,100024.25
2023-05-21T14:00:30.310Z,100020.31
2023-05-21T14:02:58.980Z,100019.81
2023-05-21T14:05:27.706Z,100017.66
2023-05-21T14:07:56.375Z,100015.88
2023-05-21T14:10:25.178Z,100014.97
2023-05-21T14:12:55.913Z,100002.09
2023-05-21T14:15:32.451Z,100005.13
2023-05-21T14:18:00.932Z,100002.81
2023-05-21T14:20:29.576Z,99999.91
2023-05-21T14:22:58.180Z,100005.97
2023-05-21T14:25:26.791Z,100004.84
2023-05-21T14:27:55.354Z,100010.69
2023-05-21T14:30:24.038Z,100012.84
2023-05-21T14:32:54.938Z,100010.06
2023-05-21T14:35:25.264Z,100016.31
2023-05-21T14:37:54.346Z,100009.81
2023-05-21T14:40:22.903Z,100007.66
2023-05-21T14:42:52.449Z,100001.97
2023-05-21T14:45:21.352Z,100005.13
2023-05-21T14:47:50.008Z,100009.78
2023-05-21T14:50:20.099Z,100006.06
2023-05-21T14:52:48.667Z,99997.25
2023-05-21T14:55:18.592Z,100008.06
2023-05-21T14:57:47.224Z,100001.69
2023-05-21T15:00:16.388Z,100002.69
2023-05-21T15:02:45.039Z,100002.34
2023-05-21T15:05:13.714Z,99998.25
2023-05-21T15:07:43.690Z,100001.66
2023-05-21T15:10:12.649Z,99997.53
2023-05-21T15:12:41.569Z,100005.91
2023-05-21T15:15:10.896Z,99994.03
2023-05-21T15:17:39.414Z,99993.91
2023-05-21T15:20:09.513Z,99997.47
2023-05-21T15:22:38.333Z,100001.66
2023-05-21T15:25:09.198Z,99993.97
2023-05-21T15:27:37.807Z,99988.13
2023-05-21T15:30:07.741Z,99995.03
2023-05-21T15:32:36.312Z,99997.16
2023-05-21T15:35:05.230Z,99980.84
2023-05-21T15:37:34.321Z,99985.63
2023-05-21T15:40:03.206Z,99973.75
2023-05-21T15:42:33.080Z,99976.75
2023-05-21T15:45:01.758Z,99972.84
2023-05-21T15:47:31.611Z,99972.56
2023-05-21T15:50:00.535Z,99977.56
2023-05-21T15:52:29.209Z,99975.44
2023-05-21T15:54:57.843Z,99967.09
2023-05-21T15:57:26.724Z,99967.09
2023-05-21T15:59:56.772Z,99967.75
2023-05-21T16:02:25.377Z,99960.19
2023-05-21T16:04:53.965Z,99971.53
2023-05-21T16:07:24.365Z,99955.34
2023-05-21T16:09:52.940Z,99966.94
2023-05-21T16:12:21.863Z,99967.22
2023-05-21T16:14:50.942Z,99960.88
2023-05-21T16:17:20.833Z,99958.63
2023-05-21T16:19:49.432Z,99955.19
2023-05-21T16:22:20.325Z,99960.81
2023-05-21T16:24:48.982Z,99955.31
2023-05-21T16:27:17.594Z,99962.06
2023-05-21T16:29:46.242Z,99951.72
2023-05-21T16:32:15.014Z,99952.22
2023-05-21T16:34:45.041Z,99949.84
2023-05-21T16:37:13.546Z,99941.13
2023-05-21T16:39:42.047Z,99939.78
2023-05-21T16:42:10.618Z,99944.00
2023-05-21T16:44:39.363Z,99941.06
2023-05-21T16:47:08.085Z,99943.47
2023-05-21T16:49:36.842Z,99942.34
2023-05-21T16:52:09.569Z,99938.59
2023-05-21T16:54:38.228Z,99934.59
2023-05-21T16:57:07.278Z,99943.03
2023-05-21T16:59:35.756Z,99943.44
2023-05-21T17:02:04.884Z,99942.06
2023-05-21T17:04:33.595Z,99952.28
2023-05-21T17:07:02.165Z,99958.91
2023-05-21T17:09:32.103Z,99959.13
2023-05-21T17:12:00.684Z,99960.28
2023-05-21T17:17:00.760Z,99961.56
2023-05-21T17:19:29.572Z,99962.59
2023-05-21T17:21:58.566Z,99960.06
2023-05-21T17:24:27.287Z,99963.75
2023-05-21T17:26:57.512Z,99962.09
2023-05-21T17:29:26.163Z,99959.50
2023-05-21T17:31:54.966Z,99963.09
2023-05-21T17:34:26.280Z,99964.06
2023-05-21T17:36:55.289Z,99963.38
2023-05-21T17:39:23.971Z,99971.56
2023-05-21T17:41:52.934Z,99968.25
2023-05-21T17:44:23.145Z,99969.44
2023-05-21T17:46:52.481Z,99967.00
2023-05-21T17:49:21.629Z,99976.13
2023-05-21T17:51:50.840Z,99979.09
2023-05-21T17:54:21.587Z,99983.75
2023-05-21T17:56:50.922Z,99979.53
2023-05-21T17:59:21.376Z,99990.41
2023-05-21T18:01:55.466Z,99984.31
2023-05-21T18:04:24.541Z,99984.53
2023-05-21T18:06:57.290Z,99981.16
2023-05-21T18:09:26.694Z,99981.31
2023-05-21T18:11:59.873Z,99975.31
2023-05-21T18:14:29.964Z,99978.09
2023-05-21T18:17:00.321Z,99979.13
2023-05-21T18:19:30.268Z,99969.47
2023-05-21T18:21:58.951Z,99967.78
2023-05-21T18:24:27.829Z,99968.88
2023-05-21T18:26:56.346Z,99971.69
2023-05-21T18:29:25.098Z,99972.69
2023-05-21T18:31:53.825Z,99972.84
2023-05-21T18:34:23.842Z,99975.69
2023-05-21T18:36:54.579Z,99972.16
2023-05-21T18:39:24.870Z,99968.75
2023-05-21T18:42:11.433Z,99975.94
2023-05-21T18:44:42.138Z,99976.94
2023-05-21T18:47:12.357Z,99976.19
2023-05-21T18:49:42.800Z,99979.00
2023-05-21T18:52:11.884Z,99981.75
2023-05-21T18:54:41.550Z,99985.44
2023-05-21T18:57:11.452Z,99989.09
2023-05-21T18:59:41.174Z,99988.34
2023-05-21T19:02:13.479Z,99992.88
2023-05-21T19:04:44.044Z,99981.47
2023-05-21T19:07:13.747Z,99989.63
2023-05-21T19:09:42.890Z,99988.84
2023-05-21T19:12:12.274Z,99988.03
2023-05-21T19:14:46.615Z,99995.31
2023-05-21T19:17:17.085Z,100000.75
2023-05-21T19:19:47.835Z,100002.56
2023-05-21T19:22:18.566Z,100000.09
2023-05-21T19:24:48.877Z,100001.06
2023-05-21T19:27:19.916Z,100007.50
2023-05-21T19:29:50.253Z,100007.59
2023-05-21T19:32:21.207Z,100011.31
2023-05-21T19:34:52.274Z,100015.88
2023-05-21T19:37:21.479Z,100018.66
2023-05-21T19:39:59.256Z,100021.44
2023-05-21T19:42:28.993Z,100020.59
2023-05-21T19:45:01.258Z,100021.63
2023-05-21T19:47:32.415Z,100021.69
2023-05-21T19:50:08.099Z,100028.88
2023-05-21T19:52:39.079Z,100028.94
2023-05-21T19:55:10.548Z,100033.44
2023-05-21T19:57:40.333Z,100030.84
2023-05-21T20:00:11.430Z,100020.22
2023-05-21T20:02:43.615Z,100008.75
2023-05-21T20:05:18.776Z,100012.41
2023-05-21T20:07:47.593Z,100008.94
2023-05-21T20:10:17.168Z,99999.34
2023-05-21T20:12:47.002Z,100003.84
2023-05-21T20:15:16.730Z,100010.22
2023-05-21T20:17:45.655Z,100004.19
2023-05-21T20:20:16.907Z,99998.19
2023-05-21T20:22:46.971Z,100005.53
2023-05-21T20:25:16.413Z,100011.00
2023-05-21T20:27:45.280Z,100002.31
2023-05-21T20:30:14.271Z,100014.94
2023-05-21T20:32:43.107Z,100007.97
2023-05-21T20:35:11.946Z,100009.06
2023-05-21T20:37:42.489Z,100006.53
2023-05-21T20:40:14.801Z,100001.41
2023-05-21T20:42:45.016Z,99999.75
2023-05-21T20:45:15.849Z,99994.53
2023-05-21T20:47:44.824Z,99993.81
2023-05-21T20:50:14.148Z,99993.84
2023-05-21T20:52:46.853Z,99998.38
2023-05-21T20:55:16.050Z,100000.25
2023-05-21T20:57:44.763Z,99995.88
2023-05-21T21:00:17.270Z,99986.16
2023-05-21T21:02:46.396Z,99995.09
2023-05-21T21:05:16.423Z,99984.50
2023-05-21T21:07:47.873Z,99989.91
2023-05-21T21:10:16.501Z,99989.06
2023-05-21T21:12:45.095Z,99995.31
2023-05-21T21:15:14.184Z,100005.16
2023-05-21T21:17:42.934Z,100000.81
2023-05-21T21:20:13.709Z,100007.09
2023-05-21T21:22:42.247Z,100006.28
2023-05-21T21:25:12.422Z,100005.50
2023-05-21T21:27:42.477Z,100010.91
2023-05-21T21:30:12.058Z,100010.09
2023-05-21T21:32:41.492Z,100005.75
2023-05-21T21:35:11.066Z,100009.34
2023-05-21T21:37:39.586Z,100006.75
2023-05-21T21:40:09.475Z,100000.56
2023-05-21T21:42:39.480Z,100006.78
2023-05-21T21:45:09.680Z,99996.22
2023-05-21T21:47:38.214Z,99992.69
2023-05-21T21:50:08.549Z,99989.16
2023-05-21T21:52:40.131Z,99993.66
2023-05-21T21:55:10.897Z,99984.81
2023-05-21T21:57:41.489Z,99988.47
2023-05-21T22:00:15.918Z,99989.41
2023-05-21T22:02:46.639Z,99989.47
2023-05-21T22:05:17.069Z,99982.41
2023-05-21T22:07:47.066Z,99988.66
2023-05-21T22:10:16.643Z,99990.50
2023-05-21T22:12:47.227Z,99988.75
2023-05-21T22:15:24.965Z,99985.25
2023-05-21T22:17:53.629Z,99987.94
2023-05-21T22:20:23.077Z,99988.88
2023-05-21T22:22:52.489Z,99996.88
2023-05-21T22:25:22.708Z,99997.81
2023-05-21T22:27:53.307Z,100000.47
2023-05-21T22:30:22.124Z,100002.31
2023-05-21T22:32:50.736Z,100005.03
2023-05-21T22:35:20.613Z,99999.75
2023-05-21T22:37:49.134Z,99999.81
2023-05-21T22:40:18.075Z,100006.03
2023-05-21T22:42:47.307Z,100000.72
2023-05-21T22:45:18.537Z,99996.34
2023-05-21T22:47:48.171Z,99991.94
2023-05-21T22:50:16.846Z,99990.25
2023-05-21T22:52:45.477Z,99993.78
2023-05-21T22:55:15.063Z,99988.47
2023-05-21T22:57:45.041Z,99984.97
2023-05-21T23:00:19.104Z,99987.66
2023-05-21T23:02:52.233Z,99988.59
2023-05-21T23:05:22.730Z,99981.53
2023-05-21T23:07:51.502Z,99990.41
2023-05-21T23:10:20.594Z,99986.06
2023-05-21T23:12:49.293Z,99979.00
2023-05-21T23:15:19.045Z,99977.28
2023-05-21T23:17:49.307Z,99980.81
2023-05-21T23:20:18.089Z,99976.44
2023-05-21T23:22:46.886Z,99977.31
2023-05-21T23:25:15.680Z,99977.31
2023-05-21T23:27:44.364Z,99979.16
2023-05-21T23:30:13.328Z,99976.53
2023-05-21T23:32:42.503Z,99983.63
2023-05-21T23:35:14.425Z,99967.75
2023-05-21T23:37:43.015Z,99969.53
2023-05-21T23:40:15.096Z,99973.09
2023-05-21T23:42:44.289Z,99976.66
2023-05-21T23:45:12.978Z,99976.69
2023-05-21T23:47:41.694Z,99977.59
2023-05-21T23:50:12.221Z,99973.22
2023-05-21T23:52:43.890Z,99975.00
2023-05-21T23:55:14.916Z,99966.16
2023-05-21T23:57:43.635Z,99969.72
